• Join FlightAware (Why Join?)
  • Login
  • US Flag 
12:55AM EDT


 

Airport Tracker/Info


-or-


 

Live Flight TrackerFlight Track Log ✈ VH-CZD ✈ 01-Oct-2013 ✈ YPJT / JAD - YPJT / JAD

Flight Track Log - Related Links

Times and Time Zones

All times are in EDT time to prevent confusion due to time zone crossing. See the VH-CZD flight status page for this flight to view local times or setup timezone preferences in your user account.

Time Position Orientation Groundspeed Altitude Reporting Facility
EDT Latitude Longitude Course Direction KTS MPH feet Rate Location/Type
03:42AM -32.1052 115.8670 315° West 80 92 700  Level Aus ATC (RADAR)
03:43AM -32.0906 115.8497 315° West 92 106 1,500 960 Climbing Aus ATC (RADAR)
03:44AM -32.0825 115.8467 342° North 93 107 1,900 840 Climbing Aus ATC (RADAR)
03:44AM -32.0693 115.8281 310° West 90 104 2,500 420 Climbing Aus ATC (RADAR)
03:45AM -32.0563 115.8114 312° West 107 123 2,600  Climbing Aus ATC (RADAR)
03:45AM -32.0482 115.8080 341° North 115 132 2,500  Descending Aus ATC (RADAR)
03:46AM -32.0245 115.8121 North 129 148 2,600 60 Climbing Aus ATC (RADAR)
03:47AM -31.9981 115.8212 16° North 132 152 2,600 -120 Level Aus ATC (RADAR)
03:47AM -31.9775 115.8275 15° North 132 152 2,500 -120 Descending Aus ATC (RADAR)
03:48AM -31.9473 115.8238 354° North 121 139 2,500  Level Aus ATC (RADAR)
03:49AM -31.9290 115.8159 340° North 118 136 2,500  Level Aus ATC (RADAR)
03:50AM -31.9000 115.8035 340° North 120 138 2,500  Level Aus ATC (RADAR)
03:50AM -31.8892 115.8000 345° North 121 139 2,500  Level Aus ATC (RADAR)
03:51AM -31.8706 115.7926 341° North 121 139 2,500 60 Level Aus ATC (RADAR)
03:52AM -31.8493 115.8055 27° Northeast 119 137 2,600 60 Climbing Aus ATC (RADAR)
03:52AM -31.8500 115.8297 92° East 119 137 2,600  Level Aus ATC (RADAR)
03:53AM -31.8523 115.8671 94° East 121 139 2,600 -120 Level Aus ATC (RADAR)
03:53AM -31.8530 115.8773 95° East 121 139 2,500 -180 Descending Aus ATC (RADAR)
03:54AM -31.8466 115.8980 70° East 125 144 2,500  Level Aus ATC (RADAR)
03:55AM -31.8084 115.8940 355° North 113 130 2,500 -120 Level Aus ATC (RADAR)
03:55AM -31.8013 115.9053 54° Northeast 120 138 2,400 -120 Descending Aus ATC (RADAR)
03:56AM -31.7963 115.9286 76° East 119 137 2,400 60 Level Aus ATC (RADAR)
03:57AM -31.7947 115.9660 87° East 108 124 2,500  Climbing Aus ATC (RADAR)
03:57AM -31.7981 115.9824 104° East 103 119 2,400 -240 Descending Aus ATC (RADAR)
03:58AM -31.8184 115.9997 144° Southeast 92 106 2,200 -360 Descending Aus ATC (RADAR)
03:59AM -31.8322 115.9965 191° South 88 101 1,900 -420 Descending Aus ATC (RADAR)
04:00AM -31.8570 115.9895 193° South 88 101 1,500 -360 Descending Aus ATC (RADAR)
04:01AM -31.8667 115.9867 194° South 87 100 1,400 -480 Descending Aus ATC (RADAR)
04:01AM -31.8830 115.9813 195° South 93 107 1,000 -600 Descending Aus ATC (RADAR)
04:02AM -31.8968 115.9779 192° South 86 99 700 -480 Descending Aus ATC (RADAR)
04:03AM -31.9130 115.9732 194° South 82 94 400 120 Descending Aus ATC (RADAR)
04:03AM -31.9223 115.9604 230° Southwest 79 91 900 720 Climbing Aus ATC (RADAR)
04:04AM -31.9138 115.9522 321° Northwest 92 106 1,300 900 Climbing Aus ATC (RADAR)
04:05AM -31.8895 115.9386 335° Northwest 96 110 2,200 720 Climbing Aus ATC (RADAR)
04:05AM -31.8790 115.9329 335° Northwest 99 114 2,400 420 Climbing Aus ATC (RADAR)
04:06AM -31.8650 115.9248 334° Northwest 111 128 2,600 60 Climbing Aus ATC (RADAR)
04:06AM -31.8465 115.9143 334° Northwest 123 142 2,500 -120 Descending Aus ATC (RADAR)
04:07AM -31.8194 115.9084 350° North 132 152 2,500 -120 Level Aus ATC (RADAR)
04:08AM -31.7984 115.9232 31° Northeast 132 152 2,400  Descending Aus ATC (RADAR)
04:09AM -31.7924 115.9579 78° East 126 145 2,500 60 Climbing Aus ATC (RADAR)
04:09AM -31.7924 115.9683 90° East 124 143 2,500 -120 Level Aus ATC (RADAR)
04:10AM -31.8068 115.9967 121° Southeast 107 123 2,400 -180 Descending Aus ATC (RADAR)
04:10AM -31.8171 116.0010 160° South 97 112 2,300 -360 Descending Aus ATC (RADAR)
04:11AM -31.8267 115.9979 195° South 88 101 2,100 -480 Descending Aus ATC (RADAR)
04:11AM -31.8419 115.9934 194° South 86 99 1,800 -480 Descending Aus ATC (RADAR)
04:12AM -31.8567 115.9897 192° South 83 96 1,500 -480 Descending Aus ATC (RADAR)
04:13AM -31.8708 115.9853 195° South 78 90 1,200 -420 Descending Aus ATC (RADAR)
04:13AM -31.8864 115.9810 193° South 69 79 900 -420 Descending Aus ATC (RADAR)
04:14AM -31.8909 115.9791 200° South 70 81 800 -360 Descending Aus ATC (RADAR)
04:14AM -31.9033 115.9762 191° South 69 79 600 120 Descending Aus ATC (RADAR)
04:16AM -31.9207 115.9877 151° Southeast 91 105 1,100 420 Climbing Aus ATC (RADAR)
04:16AM -31.9175 115.9949 62° Northeast 97 112 1,300 780 Climbing Aus ATC (RADAR)
04:16AM -31.9117 116.0109 67° East 102 117 1,700 840 Climbing Aus ATC (RADAR)
04:17AM -31.9048 116.0407 75° East 98 113 2,500 840 Climbing Aus ATC (RADAR)
04:18AM -31.9055 116.0607 93° East 99 114 3,000 900 Climbing Aus ATC (RADAR)
04:19AM -31.9057 116.0901 90° East 102 117 3,800 840 Climbing Aus ATC (RADAR)
04:19AM -31.9053 116.1115 89° East 109 125 4,200 120 Climbing Aus ATC (RADAR)
04:20AM -31.8883 116.1660 70° East 159 183 4,100 -180 Descending Aus ATC (RADAR)
04:21AM -31.8844 116.1789 71° East 162 186 4,000 60 Descending Aus ATC (RADAR)
04:21AM -31.8764 116.2131 74° East 157 181 4,200  Climbing Aus ATC (RADAR)
04:22AM -31.8635 116.2649 74° East 163 188 4,000 -180 Descending Aus ATC (RADAR)
04:23AM -31.8566 116.2904 72° East 161 185 4,000 180 Level Aus ATC (RADAR)
04:24AM -31.8473 116.3328 76° East 155 178 4,300 480 Climbing Aus ATC (RADAR)
04:24AM -31.8416 116.3550 73° East 139 160 4,700 480 Climbing Aus ATC (RADAR)
04:25AM -31.8271 116.4045 71° East 146 168 5,100 240 Climbing Aus ATC (RADAR)
04:26AM -31.8202 116.4299 72° East 158 182 5,100 60 Level Aus ATC (RADAR)
04:26AM -31.8151 116.4519 75° East 162 186 5,200 60 Climbing Aus ATC (RADAR)
04:27AM -31.8079 116.4827 75° East 163 188 5,200 -120 Level Aus ATC (RADAR)
04:27AM -31.7972 116.5229 73° East 166 191 5,100 -120 Descending Aus ATC (RADAR)
04:28AM -31.7910 116.5592 79° East 163 188 5,100  Level Aus ATC (RADAR)
04:29AM -31.7844 116.6043 80° East 164 189 5,100  Level Aus ATC (RADAR)
04:29AM -31.7809 116.6315 81° East 165 190 5,100  Level Aus ATC (RADAR)
04:31AM -31.7732 116.6942 82° East 163 188 5,100  Level Aus ATC (RADAR)
04:31AM -31.7704 116.7071 76° East 160 184 5,100  Level Aus ATC (RADAR)
04:31AM -31.7621 116.7375 72° East 161 185 5,100 60 Level Aus ATC (RADAR)
04:32AM -31.7603 116.7759 87° East 152 175 5,200  Climbing Aus ATC (RADAR)
04:33AM -31.7773 116.7795 170° South 148 170 5,100  Descending Aus ATC (RADAR)
04:33AM -31.7847 116.7555 250° West 140 161 5,200  Climbing Aus ATC (RADAR)
04:34AM -31.7912 116.7302 253° West 137 158 5,100 -120 Descending Aus ATC (RADAR)
04:34AM -31.7986 116.7015 253° West 136 157 5,100  Level Aus ATC (RADAR)
04:36AM -31.7905 116.6443 279° West 139 160 5,200 60 Climbing Aus ATC (RADAR)
04:36AM -31.7890 116.6331 279° West 138 159 5,200  Level Aus ATC (RADAR)
04:37AM -31.7885 116.6067 271° West 135 155 5,200  Level Aus ATC (RADAR)
04:37AM -31.7901 116.5726 267° West 135 155 5,200  Level Aus ATC (RADAR)
04:38AM -31.7929 116.5543 260° West 133 153 5,200 -240 Level Aus ATC (RADAR)
04:38AM -31.7977 116.5280 258° West 138 159 5,000 -120 Descending Aus ATC (RADAR)
04:39AM -31.8070 116.4959 251° West 136 157 5,100 60 Climbing Aus ATC (RADAR)
04:40AM -31.8146 116.4675 253° West 134 154 5,100  Level Aus ATC (RADAR)
04:41AM -31.8252 116.4100 258° West 134 154 5,100  Level Aus ATC (RADAR)
04:41AM -31.8256 116.3989 268° West 133 153 5,100 -120 Level Aus ATC (RADAR)
04:42AM -31.8271 116.3731 266° West 133 153 5,000 -120 Descending Aus ATC (RADAR)
04:43AM -31.8305 116.3399 263° West 133 153 5,000 60 Level Aus ATC (RADAR)
04:43AM -31.8342 116.3138 261° West 134 154 5,100 60 Climbing Aus ATC (RADAR)
04:44AM -31.8422 116.2818 254° West 134 154 5,100  Level Aus ATC (RADAR)
04:44AM -31.8503 116.2615 245° Southwest 135 155 5,100  Level Aus ATC (RADAR)
04:45AM -31.8629 116.2231 249° West 136 157 5,100  Level Aus ATC (RADAR)
04:46AM -31.8680 116.2057 251° West 134 154 5,100  Level Aus ATC (RADAR)
04:46AM -31.8684 116.1871 268° West 133 153 5,100  Level Aus ATC (RADAR)
04:47AM -31.8662 116.1572 275° West 135 155 5,100  Level Aus ATC (RADAR)
04:48AM -31.8643 116.1269 274° West 136 157 5,100  Level Aus ATC (RADAR)
04:48AM -31.8636 116.1009 272° West 135 155 5,100  Level Aus ATC (RADAR)
04:49AM -31.8612 116.0669 275° West 135 155 5,100  Level Aus ATC (RADAR)
04:49AM -31.8593 116.0440 276° West 136 157 5,100  Level Aus ATC (RADAR)
04:50AM -31.8577 116.0254 276° West 136 157 5,100 -60 Level Aus ATC (RADAR)
04:51AM -31.8567 115.9642 271° West 139 160 5,000 -300 Descending Aus ATC (RADAR)
04:51AM -31.8570 115.9519 268° West 143 165 4,700 -720 Descending Aus ATC (RADAR)
04:52AM -31.8561 115.9249 272° West 136 157 4,400 -720 Descending Aus ATC (RADAR)
04:53AM -31.8574 115.8937 267° West 124 143 3,800 -780 Descending Aus ATC (RADAR)
04:53AM -31.8700 115.8854 209° Southwest 123 142 3,500 -720 Descending Aus ATC (RADAR)
04:54AM -31.8901 115.8804 192° South 126 145 3,100 -720 Descending Aus ATC (RADAR)
04:55AM -31.9165 115.8716 196° South 117 135 2,500 -720 Descending Aus ATC (RADAR)
04:55AM -31.9469 115.8635 193° South 124 143 1,900 -660 Descending Aus ATC (RADAR)
04:56AM -31.9726 115.8598 187° South 124 143 1,500 -300 Descending Aus ATC (RADAR)
04:57AM -31.9832 115.8571 192° South 118 136 1,600 120 Climbing Aus ATC (RADAR)
04:57AM -31.9985 115.8544 189° South 112 129 1,600  Level Aus ATC (RADAR)
04:58AM -32.0186 115.8548 179° South 108 124 1,600 60 Level Aus ATC (RADAR)
04:58AM -32.0354 115.8628 158° South 112 129 1,700 -180 Climbing Aus ATC (RADAR)
04:59AM -32.0561 115.8803 144° Southeast 108 124 1,400 -360 Descending Aus ATC (RADAR)
04:59AM -32.0634 115.8861 146° Southeast 98 113 1,300 -540 Descending Aus ATC (RADAR)
05:00AM -32.0760 115.8981 141° Southeast 89 102 900 -600 Descending Aus ATC (RADAR)
05:01AM -32.0930 115.8855 212° Southwest 67 77 200 -540 Descending Aus ATC (RADAR)
05:02AM -32.0972 115.8778 237° Southwest 64 74 100  Descending Aus ATC (RADAR)
05:02AM -32.0976 115.8766 250° West 12 14 200 120 Climbing Aus ATC (RADAR)
05:03AM -32.0973 115.8767 17° North 7 8 200  Level Aus ATC (RADAR)